sensor_id;sensor_type;location;lat;lon;timestamp;P1;durP1;ratioP1;P2;durP2;ratioP2
40787;SDS011;26497;52.494;7.546;2023-03-23T00:00:07;738.75;;;686.88;;
40787;SDS011;26497;52.494;7.546;2023-03-23T00:02:35;729.55;;;678.17;;
40787;SDS011;26497;52.494;7.546;2023-03-23T00:05:03;722.95;;;672.55;;
40787;SDS011;26497;52.494;7.546;2023-03-23T00:07:33;773.22;;;718.92;;
40787;SDS011;26497;52.494;7.546;2023-03-23T00:10:01;763.63;;;709.88;;
40787;SDS011;26497;52.494;7.546;2023-03-23T00:12:29;756.92;;;703.40;;
40787;SDS011;26497;52.494;7.546;2023-03-23T00:14:59;756.15;;;702.97;;
40787;SDS011;26497;52.494;7.546;2023-03-23T00:17:26;753.30;;;700.42;;
40787;SDS011;26497;52.494;7.546;2023-03-23T00:19:54;758.10;;;704.03;;
40787;SDS011;26497;52.494;7.546;2023-03-23T00:22:22;750.55;;;697.38;;
40787;SDS011;26497;52.494;7.546;2023-03-23T00:24:51;211.18;;;198.88;;
40787;SDS011;26497;52.494;7.546;2023-03-23T00:27:18;357.23;;;337.05;;
40787;SDS011;26497;52.494;7.546;2023-03-23T00:29:48;369.75;;;348.90;;
40787;SDS011;26497;52.494;7.546;2023-03-23T00:32:17;386.92;;;364.83;;
40787;SDS011;26497;52.494;7.546;2023-03-23T00:34:46;405.88;;;381.90;;
40787;SDS011;26497;52.494;7.546;2023-03-23T00:37:14;427.77;;;402.75;;
40787;SDS011;26497;52.494;7.546;2023-03-23T00:39:42;400.63;;;377.52;;
40787;SDS011;26497;52.494;7.546;2023-03-23T00:42:12;387.15;;;365.27;;
40787;SDS011;26497;52.494;7.546;2023-03-23T00:44:41;410.65;;;387.05;;
40787;SDS011;26497;52.494;7.546;2023-03-23T00:47:09;401.83;;;378.23;;
40787;SDS011;26497;52.494;7.546;2023-03-23T00:49:38;388.20;;;366.17;;
40787;SDS011;26497;52.494;7.546;2023-03-23T00:52:06;390.48;;;367.63;;
40787;SDS011;26497;52.494;7.546;2023-03-23T00:54:34;401.83;;;378.85;;
40787;SDS011;26497;52.494;7.546;2023-03-23T00:57:02;352.05;;;331.38;;
40787;SDS011;26497;52.494;7.546;2023-03-23T00:59:31;349.08;;;329.35;;
40787;SDS011;26497;52.494;7.546;2023-03-23T01:01:59;387.88;;;366.13;;
40787;SDS011;26497;52.494;7.546;2023-03-23T01:04:26;341.30;;;321.63;;
40787;SDS011;26497;52.494;7.546;2023-03-23T01:06:56;361.37;;;340.77;;
40787;SDS011;26497;52.494;7.546;2023-03-23T01:09:25;302.35;;;285.35;;
40787;SDS011;26497;52.494;7.546;2023-03-23T01:11:52;282.15;;;266.10;;
40787;SDS011;26497;52.494;7.546;2023-03-23T01:14:21;278.85;;;263.15;;
40787;SDS011;26497;52.494;7.546;2023-03-23T01:16:50;285.02;;;269.25;;
40787;SDS011;26497;52.494;7.546;2023-03-23T01:19:18;297.70;;;280.50;;
40787;SDS011;26497;52.494;7.546;2023-03-23T01:21:44;301.30;;;283.90;;
40787;SDS011;26497;52.494;7.546;2023-03-23T01:24:11;286.67;;;270.80;;
40787;SDS011;26497;52.494;7.546;2023-03-23T01:26:39;269.70;;;254.85;;
40787;SDS011;26497;52.494;7.546;2023-03-23T01:29:06;263.73;;;248.93;;
40787;SDS011;26497;52.494;7.546;2023-03-23T01:31:32;254.88;;;240.32;;
40787;SDS011;26497;52.494;7.546;2023-03-23T01:34:03;259.13;;;244.02;;
40787;SDS011;26497;52.494;7.546;2023-03-23T01:36:30;271.60;;;256.48;;
40787;SDS011;26497;52.494;7.546;2023-03-23T01:38:58;259.70;;;245.45;;
40787;SDS011;26497;52.494;7.546;2023-03-23T01:41:28;257.73;;;243.50;;
40787;SDS011;26497;52.494;7.546;2023-03-23T01:43:57;238.38;;;224.68;;
40787;SDS011;26497;52.494;7.546;2023-03-23T01:46:30;229.77;;;216.52;;
40787;SDS011;26497;52.494;7.546;2023-03-23T01:49:00;225.25;;;212.73;;
40787;SDS011;26497;52.494;7.546;2023-03-23T01:51:34;223.52;;;211.05;;
40787;SDS011;26497;52.494;7.546;2023-03-23T01:54:06;214.82;;;202.70;;
40787;SDS011;26497;52.494;7.546;2023-03-23T01:56:39;211.43;;;199.02;;
40787;SDS011;26497;52.494;7.546;2023-03-23T01:59:13;192.88;;;181.30;;
40787;SDS011;26497;52.494;7.546;2023-03-23T02:01:41;538.75;;;502.77;;
40787;SDS011;26497;52.494;7.546;2023-03-23T02:04:12;582.03;;;543.72;;
40787;SDS011;26497;52.494;7.546;2023-03-23T02:06:40;597.50;;;557.85;;
40787;SDS011;26497;52.494;7.546;2023-03-23T02:09:07;602.72;;;562.55;;
40787;SDS011;26497;52.494;7.546;2023-03-23T02:11:35;616.38;;;575.00;;
40787;SDS011;26497;52.494;7.546;2023-03-23T02:14:02;630.55;;;587.90;;
40787;SDS011;26497;52.494;7.546;2023-03-23T02:16:31;633.17;;;589.67;;
40787;SDS011;26497;52.494;7.546;2023-03-23T02:19:16;602.17;;;556.65;;
40787;SDS011;26497;52.494;7.546;2023-03-23T02:22:29;92.13;;;86.82;;
40787;SDS011;26497;52.494;7.546;2023-03-23T02:25:50;86.40;;;81.20;;
40787;SDS011;26497;52.494;7.546;2023-03-23T02:28:37;427.00;;;401.55;;
40787;SDS011;26497;52.494;7.546;2023-03-23T02:31:29;427.38;;;402.30;;
40787;SDS011;26497;52.494;7.546;2023-03-23T02:34:28;475.65;;;446.98;;
40787;SDS011;26497;52.494;7.546;2023-03-23T02:37:02;485.98;;;456.48;;
40787;SDS011;26497;52.494;7.546;2023-03-23T02:39:35;490.30;;;460.13;;
40787;SDS011;26497;52.494;7.546;2023-03-23T02:42:08;493.20;;;462.85;;
40787;SDS011;26497;52.494;7.546;2023-03-23T02:44:39;499.88;;;468.90;;
40787;SDS011;26497;52.494;7.546;2023-03-23T02:47:11;516.40;;;483.83;;
40787;SDS011;26497;52.494;7.546;2023-03-23T02:49:44;553.22;;;517.28;;
40787;SDS011;26497;52.494;7.546;2023-03-23T02:52:22;530.10;;;496.52;;
40787;SDS011;26497;52.494;7.546;2023-03-23T02:54:53;533.83;;;499.88;;
40787;SDS011;26497;52.494;7.546;2023-03-23T02:57:23;535.78;;;501.52;;
40787;SDS011;26497;52.494;7.546;2023-03-23T02:59:52;530.25;;;496.45;;
40787;SDS011;26497;52.494;7.546;2023-03-23T03:02:21;550.38;;;515.10;;
40787;SDS011;26497;52.494;7.546;2023-03-23T03:07:32;588.67;;;549.30;;
40787;SDS011;26497;52.494;7.546;2023-03-23T03:10:10;567.33;;;530.10;;
40787;SDS011;26497;52.494;7.546;2023-03-23T03:12:51;573.00;;;534.97;;
40787;SDS011;26497;52.494;7.546;2023-03-23T03:15:28;555.92;;;519.67;;
40787;SDS011;26497;52.494;7.546;2023-03-23T03:18:02;528.42;;;495.02;;
40787;SDS011;26497;52.494;7.546;2023-03-23T03:20:40;524.40;;;491.23;;
40787;SDS011;26497;52.494;7.546;2023-03-23T03:23:11;513.47;;;481.25;;
40787;SDS011;26497;52.494;7.546;2023-03-23T03:25:40;516.00;;;483.83;;
40787;SDS011;26497;52.494;7.546;2023-03-23T03:28:12;486.10;;;456.42;;
40787;SDS011;26497;52.494;7.546;2023-03-23T03:30:46;472.42;;;443.63;;
40787;SDS011;26497;52.494;7.546;2023-03-23T03:33:18;475.25;;;446.35;;
40787;SDS011;26497;52.494;7.546;2023-03-23T03:38:20;475.20;;;445.95;;
40787;SDS011;26497;52.494;7.546;2023-03-23T03:40:47;461.55;;;433.67;;
40787;SDS011;26497;52.494;7.546;2023-03-23T03:43:15;436.60;;;410.25;;
40787;SDS011;26497;52.494;7.546;2023-03-23T03:45:42;423.60;;;398.88;;
40787;SDS011;26497;52.494;7.546;2023-03-23T03:48:09;415.88;;;391.67;;
40787;SDS011;26497;52.494;7.546;2023-03-23T03:50:37;419.88;;;395.35;;
40787;SDS011;26497;52.494;7.546;2023-03-23T03:53:06;412.70;;;388.63;;
40787;SDS011;26497;52.494;7.546;2023-03-23T03:55:33;408.95;;;384.73;;
40787;SDS011;26497;52.494;7.546;2023-03-23T03:58:03;410.38;;;386.38;;
40787;SDS011;26497;52.494;7.546;2023-03-23T04:00:30;416.05;;;390.88;;
40787;SDS011;26497;52.494;7.546;2023-03-23T04:02:57;416.98;;;392.58;;
40787;SDS011;26497;52.494;7.546;2023-03-23T04:05:25;425.98;;;401.00;;
40787;SDS011;26497;52.494;7.546;2023-03-23T04:07:53;436.10;;;410.35;;
40787;SDS011;26497;52.494;7.546;2023-03-23T04:10:28;430.95;;;405.42;;
40787;SDS011;26497;52.494;7.546;2023-03-23T04:12:56;426.48;;;401.33;;
40787;SDS011;26497;52.494;7.546;2023-03-23T04:15:24;447.70;;;421.05;;
40787;SDS011;26497;52.494;7.546;2023-03-23T04:17:51;435.05;;;409.25;;
40787;SDS011;26497;52.494;7.546;2023-03-23T04:20:18;441.52;;;415.40;;
40787;SDS011;26497;52.494;7.546;2023-03-23T04:22:45;439.42;;;413.30;;
40787;SDS011;26497;52.494;7.546;2023-03-23T04:25:15;431.77;;;406.42;;
40787;SDS011;26497;52.494;7.546;2023-03-23T04:27:47;436.60;;;410.52;;
40787;SDS011;26497;52.494;7.546;2023-03-23T04:30:17;417.85;;;393.52;;
40787;SDS011;26497;52.494;7.546;2023-03-23T04:32:45;380.27;;;358.65;;
40787;SDS011;26497;52.494;7.546;2023-03-23T04:35:15;380.77;;;358.80;;
40787;SDS011;26497;52.494;7.546;2023-03-23T04:37:44;383.17;;;360.98;;
40787;SDS011;26497;52.494;7.546;2023-03-23T04:40:13;376.58;;;355.25;;
40787;SDS011;26497;52.494;7.546;2023-03-23T04:42:41;348.25;;;328.58;;
40787;SDS011;26497;52.494;7.546;2023-03-23T04:45:12;330.92;;;312.20;;
40787;SDS011;26497;52.494;7.546;2023-03-23T04:47:46;313.88;;;296.02;;
40787;SDS011;26497;52.494;7.546;2023-03-23T04:50:18;313.63;;;296.02;;
40787;SDS011;26497;52.494;7.546;2023-03-23T04:52:49;296.73;;;280.33;;
40787;SDS011;26497;52.494;7.546;2023-03-23T04:55:19;289.30;;;273.17;;
40787;SDS011;26497;52.494;7.546;2023-03-23T04:57:47;290.48;;;273.98;;
40787;SDS011;26497;52.494;7.546;2023-03-23T05:00:15;268.20;;;252.88;;
40787;SDS011;26497;52.494;7.546;2023-03-23T05:02:46;272.75;;;257.52;;
40787;SDS011;26497;52.494;7.546;2023-03-23T05:05:16;256.30;;;241.97;;
40787;SDS011;26497;52.494;7.546;2023-03-23T05:07:45;265.90;;;251.00;;
40787;SDS011;26497;52.494;7.546;2023-03-23T05:10:12;325.23;;;307.05;;
40787;SDS011;26497;52.494;7.546;2023-03-23T05:12:40;327.75;;;309.52;;
40787;SDS011;26497;52.494;7.546;2023-03-23T05:15:08;341.35;;;322.50;;
40787;SDS011;26497;52.494;7.546;2023-03-23T05:17:37;297.33;;;279.92;;
40787;SDS011;26497;52.494;7.546;2023-03-23T05:20:06;344.38;;;324.83;;
40787;SDS011;26497;52.494;7.546;2023-03-23T05:22:36;334.52;;;315.98;;
40787;SDS011;26497;52.494;7.546;2023-03-23T05:25:04;389.02;;;366.60;;
40787;SDS011;26497;52.494;7.546;2023-03-23T05:27:33;418.33;;;394.45;;
40787;SDS011;26497;52.494;7.546;2023-03-23T05:30:01;461.45;;;433.60;;
40787;SDS011;26497;52.494;7.546;2023-03-23T05:32:29;497.73;;;467.35;;
40787;SDS011;26497;52.494;7.546;2023-03-23T05:34:58;526.40;;;493.65;;
40787;SDS011;26497;52.494;7.546;2023-03-23T05:37:28;592.42;;;553.10;;
40787;SDS011;26497;52.494;7.546;2023-03-23T05:39:57;633.03;;;589.95;;
40787;SDS011;26497;52.494;7.546;2023-03-23T05:42:30;645.70;;;601.17;;
40787;SDS011;26497;52.494;7.546;2023-03-23T05:44:59;662.78;;;616.90;;
40787;SDS011;26497;52.494;7.546;2023-03-23T05:47:26;670.08;;;623.55;;
40787;SDS011;26497;52.494;7.546;2023-03-23T05:49:54;620.58;;;579.00;;
40787;SDS011;26497;52.494;7.546;2023-03-23T05:52:22;612.78;;;571.47;;
40787;SDS011;26497;52.494;7.546;2023-03-23T05:54:49;586.47;;;548.20;;
40787;SDS011;26497;52.494;7.546;2023-03-23T05:57:17;588.47;;;549.88;;
40787;SDS011;26497;52.494;7.546;2023-03-23T05:59:46;542.17;;;508.13;;
40787;SDS011;26497;52.494;7.546;2023-03-23T06:02:14;539.72;;;505.23;;
40787;SDS011;26497;52.494;7.546;2023-03-23T06:04:41;541.33;;;507.10;;
40787;SDS011;26497;52.494;7.546;2023-03-23T06:07:10;541.42;;;507.20;;
40787;SDS011;26497;52.494;7.546;2023-03-23T06:09:40;512.08;;;479.70;;
40787;SDS011;26497;52.494;7.546;2023-03-23T06:12:07;495.77;;;464.83;;
40787;SDS011;26497;52.494;7.546;2023-03-23T06:14:35;481.75;;;452.23;;
40787;SDS011;26497;52.494;7.546;2023-03-23T06:17:03;499.55;;;468.75;;
40787;SDS011;26497;52.494;7.546;2023-03-23T06:19:31;442.00;;;416.00;;
40787;SDS011;26497;52.494;7.546;2023-03-23T06:21:59;399.33;;;376.65;;
40787;SDS011;26497;52.494;7.546;2023-03-23T06:24:27;417.27;;;393.25;;
40787;SDS011;26497;52.494;7.546;2023-03-23T06:26:55;360.63;;;340.05;;
40787;SDS011;26497;52.494;7.546;2023-03-23T06:29:23;335.50;;;316.48;;
40787;SDS011;26497;52.494;7.546;2023-03-23T06:31:52;324.42;;;306.30;;
40787;SDS011;26497;52.494;7.546;2023-03-23T06:34:23;307.90;;;290.58;;
40787;SDS011;26497;52.494;7.546;2023-03-23T06:36:50;326.27;;;306.05;;
40787;SDS011;26497;52.494;7.546;2023-03-23T06:39:18;287.23;;;271.65;;
40787;SDS011;26497;52.494;7.546;2023-03-23T06:41:45;273.50;;;258.45;;
40787;SDS011;26497;52.494;7.546;2023-03-23T06:44:14;266.48;;;251.32;;
40787;SDS011;26497;52.494;7.546;2023-03-23T06:46:41;306.08;;;288.75;;
40787;SDS011;26497;52.494;7.546;2023-03-23T06:49:08;238.23;;;225.13;;
40787;SDS011;26497;52.494;7.546;2023-03-23T06:51:36;241.43;;;228.00;;
40787;SDS011;26497;52.494;7.546;2023-03-23T06:54:04;229.05;;;216.18;;
40787;SDS011;26497;52.494;7.546;2023-03-23T06:56:31;246.75;;;233.15;;
40787;SDS011;26497;52.494;7.546;2023-03-23T06:58:59;317.08;;;298.58;;
40787;SDS011;26497;52.494;7.546;2023-03-23T07:01:27;204.32;;;192.73;;
40787;SDS011;26497;52.494;7.546;2023-03-23T07:03:55;210.07;;;198.23;;
40787;SDS011;26497;52.494;7.546;2023-03-23T07:06:23;201.15;;;190.18;;
40787;SDS011;26497;52.494;7.546;2023-03-23T07:08:51;202.13;;;190.68;;
40787;SDS011;26497;52.494;7.546;2023-03-23T07:11:18;226.55;;;214.10;;
40787;SDS011;26497;52.494;7.546;2023-03-23T07:13:45;408.52;;;384.58;;
40787;SDS011;26497;52.494;7.546;2023-03-23T07:16:12;282.88;;;267.60;;
40787;SDS011;26497;52.494;7.546;2023-03-23T07:18:40;268.50;;;253.85;;
40787;SDS011;26497;52.494;7.546;2023-03-23T07:21:07;315.42;;;298.15;;
40787;SDS011;26497;52.494;7.546;2023-03-23T07:23:35;406.58;;;383.88;;
40787;SDS011;26497;52.494;7.546;2023-03-23T07:26:02;461.05;;;434.60;;
40787;SDS011;26497;52.494;7.546;2023-03-23T07:28:29;517.53;;;487.23;;
40787;SDS011;26497;52.494;7.546;2023-03-23T07:30:56;527.58;;;496.38;;
40787;SDS011;26497;52.494;7.546;2023-03-23T07:33:23;505.80;;;476.08;;
40787;SDS011;26497;52.494;7.546;2023-03-23T07:35:53;469.25;;;441.88;;
40787;SDS011;26497;52.494;7.546;2023-03-23T07:38:20;379.60;;;358.02;;
40787;SDS011;26497;52.494;7.546;2023-03-23T07:40:47;341.60;;;322.50;;
40787;SDS011;26497;52.494;7.546;2023-03-23T07:43:14;341.98;;;323.42;;
40787;SDS011;26497;52.494;7.546;2023-03-23T07:45:41;373.70;;;353.15;;
40787;SDS011;26497;52.494;7.546;2023-03-23T07:48:08;269.23;;;254.70;;
40787;SDS011;26497;52.494;7.546;2023-03-23T07:50:35;224.45;;;212.57;;
40787;SDS011;26497;52.494;7.546;2023-03-23T07:53:04;529.70;;;496.27;;
40787;SDS011;26497;52.494;7.546;2023-03-23T07:55:31;390.15;;;368.40;;
40787;SDS011;26497;52.494;7.546;2023-03-23T07:57:58;415.48;;;391.58;;
40787;SDS011;26497;52.494;7.546;2023-03-23T08:00:25;443.58;;;416.65;;
40787;SDS011;26497;52.494;7.546;2023-03-23T08:02:54;481.25;;;452.33;;
40787;SDS011;26497;52.494;7.546;2023-03-23T08:05:24;498.83;;;467.98;;
40787;SDS011;26497;52.494;7.546;2023-03-23T08:07:52;533.55;;;498.98;;
40787;SDS011;26497;52.494;7.546;2023-03-23T08:10:22;572.03;;;534.60;;
40787;SDS011;26497;52.494;7.546;2023-03-23T08:12:52;648.03;;;602.30;;
40787;SDS011;26497;52.494;7.546;2023-03-23T08:15:21;672.67;;;624.63;;
40787;SDS011;26497;52.494;7.546;2023-03-23T08:17:50;688.25;;;639.42;;
40787;SDS011;26497;52.494;7.546;2023-03-23T08:20:17;729.47;;;676.65;;
40787;SDS011;26497;52.494;7.546;2023-03-23T08:22:48;1999.90;;;999.90;;
40787;SDS011;26497;52.494;7.546;2023-03-23T08:25:20;618.42;;;575.67;;
40787;SDS011;26497;52.494;7.546;2023-03-23T08:27:51;568.47;;;531.17;;
40787;SDS011;26497;52.494;7.546;2023-03-23T08:30:19;724.42;;;671.75;;
40787;SDS011;26497;52.494;7.546;2023-03-23T08:32:47;1093.78;;;799.45;;
40787;SDS011;26497;52.494;7.546;2023-03-23T08:35:16;740.90;;;687.10;;
40787;SDS011;26497;52.494;7.546;2023-03-23T08:37:44;1999.90;;;999.90;;
40787;SDS011;26497;52.494;7.546;2023-03-23T08:40:16;1376.28;;;848.53;;
40787;SDS011;26497;52.494;7.546;2023-03-23T08:42:47;449.55;;;415.70;;
40787;SDS011;26497;52.494;7.546;2023-03-23T08:45:16;1999.90;;;999.90;;
40787;SDS011;26497;52.494;7.546;2023-03-23T08:47:48;1999.90;;;999.90;;
40787;SDS011;26497;52.494;7.546;2023-03-23T08:50:19;1999.90;;;999.90;;
40787;SDS011;26497;52.494;7.546;2023-03-23T08:52:48;1999.90;;;999.90;;
40787;SDS011;26497;52.494;7.546;2023-03-23T08:55:16;1999.90;;;999.90;;
40787;SDS011;26497;52.494;7.546;2023-03-23T08:57:43;1999.90;;;999.90;;
40787;SDS011;26497;52.494;7.546;2023-03-23T09:00:14;1999.90;;;999.90;;
40787;SDS011;26497;52.494;7.546;2023-03-23T09:02:45;1999.90;;;999.90;;
40787;SDS011;26497;52.494;7.546;2023-03-23T09:05:14;1999.90;;;999.90;;
40787;SDS011;26497;52.494;7.546;2023-03-23T09:07:43;1999.90;;;999.90;;
40787;SDS011;26497;52.494;7.546;2023-03-23T09:10:12;1999.90;;;999.90;;
40787;SDS011;26497;52.494;7.546;2023-03-23T09:12:41;1999.90;;;999.90;;
40787;SDS011;26497;52.494;7.546;2023-03-23T09:15:10;1999.90;;;999.90;;
40787;SDS011;26497;52.494;7.546;2023-03-23T09:17:42;1999.90;;;999.90;;
40787;SDS011;26497;52.494;7.546;2023-03-23T09:20:12;1999.90;;;999.90;;
40787;SDS011;26497;52.494;7.546;2023-03-23T09:22:42;1999.90;;;999.90;;
40787;SDS011;26497;52.494;7.546;2023-03-23T09:25:11;1999.90;;;999.90;;
40787;SDS011;26497;52.494;7.546;2023-03-23T09:27:41;1999.90;;;999.90;;
40787;SDS011;26497;52.494;7.546;2023-03-23T09:30:10;1999.90;;;999.90;;
40787;SDS011;26497;52.494;7.546;2023-03-23T09:32:40;1999.90;;;999.90;;
40787;SDS011;26497;52.494;7.546;2023-03-23T09:35:09;1999.90;;;999.90;;
40787;SDS011;26497;52.494;7.546;2023-03-23T09:37:38;1999.90;;;999.90;;
40787;SDS011;26497;52.494;7.546;2023-03-23T09:40:06;1999.90;;;999.90;;
40787;SDS011;26497;52.494;7.546;2023-03-23T09:42:46;1999.90;;;999.90;;
40787;SDS011;26497;52.494;7.546;2023-03-23T09:45:43;1999.90;;;999.90;;
40787;SDS011;26497;52.494;7.546;2023-03-23T09:51:08;1999.90;;;999.90;;
40787;SDS011;26497;52.494;7.546;2023-03-23T09:53:44;1999.90;;;999.90;;
40787;SDS011;26497;52.494;7.546;2023-03-23T09:56:16;1999.90;;;999.90;;
40787;SDS011;26497;52.494;7.546;2023-03-23T09:58:45;1999.90;;;999.90;;
40787;SDS011;26497;52.494;7.546;2023-03-23T10:01:19;1999.90;;;999.90;;
40787;SDS011;26497;52.494;7.546;2023-03-23T10:03:50;1999.90;;;999.90;;
40787;SDS011;26497;52.494;7.546;2023-03-23T10:06:26;1999.90;;;999.90;;
40787;SDS011;26497;52.494;7.546;2023-03-23T10:08:55;1999.90;;;999.90;;
40787;SDS011;26497;52.494;7.546;2023-03-23T10:11:31;1999.90;;;999.90;;
40787;SDS011;26497;52.494;7.546;2023-03-23T10:14:12;1999.90;;;999.90;;
40787;SDS011;26497;52.494;7.546;2023-03-23T10:16:54;1999.90;;;999.90;;
40787;SDS011;26497;52.494;7.546;2023-03-23T10:19:29;1999.90;;;999.90;;
40787;SDS011;26497;52.494;7.546;2023-03-23T10:22:04;1999.90;;;999.90;;
40787;SDS011;26497;52.494;7.546;2023-03-23T10:24:36;1999.90;;;999.90;;
40787;SDS011;26497;52.494;7.546;2023-03-23T10:27:13;1999.90;;;999.90;;
40787;SDS011;26497;52.494;7.546;2023-03-23T10:29:50;1999.90;;;999.90;;
40787;SDS011;26497;52.494;7.546;2023-03-23T10:32:35;1999.90;;;999.90;;
40787;SDS011;26497;52.494;7.546;2023-03-23T10:35:10;1999.90;;;999.90;;
40787;SDS011;26497;52.494;7.546;2023-03-23T10:37:42;1999.90;;;999.90;;
40787;SDS011;26497;52.494;7.546;2023-03-23T10:40:15;1999.90;;;999.90;;
40787;SDS011;26497;52.494;7.546;2023-03-23T10:42:45;1999.90;;;999.90;;
40787;SDS011;26497;52.494;7.546;2023-03-23T10:45:16;1999.90;;;999.90;;
40787;SDS011;26497;52.494;7.546;2023-03-23T10:47:48;1999.90;;;999.90;;
40787;SDS011;26497;52.494;7.546;2023-03-23T10:50:22;1999.90;;;999.90;;
40787;SDS011;26497;52.494;7.546;2023-03-23T10:52:52;1999.90;;;999.90;;
40787;SDS011;26497;52.494;7.546;2023-03-23T10:55:24;1999.90;;;999.90;;
40787;SDS011;26497;52.494;7.546;2023-03-23T10:58:05;1999.90;;;999.90;;
40787;SDS011;26497;52.494;7.546;2023-03-23T11:00:39;1999.90;;;999.90;;
40787;SDS011;26497;52.494;7.546;2023-03-23T11:06:07;1999.90;;;999.90;;
40787;SDS011;26497;52.494;7.546;2023-03-23T11:08:38;1999.90;;;999.90;;
40787;SDS011;26497;52.494;7.546;2023-03-23T11:11:16;1999.90;;;999.90;;
40787;SDS011;26497;52.494;7.546;2023-03-23T11:13:46;1999.90;;;999.90;;
40787;SDS011;26497;52.494;7.546;2023-03-23T11:16:23;1999.90;;;999.90;;
40787;SDS011;26497;52.494;7.546;2023-03-23T11:18:54;1999.90;;;999.90;;
40787;SDS011;26497;52.494;7.546;2023-03-23T11:21:22;1999.90;;;999.90;;
40787;SDS011;26497;52.494;7.546;2023-03-23T11:23:53;1999.90;;;999.90;;
40787;SDS011;26497;52.494;7.546;2023-03-23T11:26:24;1999.90;;;999.90;;
40787;SDS011;26497;52.494;7.546;2023-03-23T11:28:55;1999.90;;;999.90;;
40787;SDS011;26497;52.494;7.546;2023-03-23T11:31:27;1999.90;;;999.90;;
40787;SDS011;26497;52.494;7.546;2023-03-23T11:34:00;1999.90;;;999.90;;
40787;SDS011;26497;52.494;7.546;2023-03-23T11:36:31;1999.90;;;999.90;;
40787;SDS011;26497;52.494;7.546;2023-03-23T11:39:02;1999.90;;;999.90;;
40787;SDS011;26497;52.494;7.546;2023-03-23T11:41:45;1999.90;;;999.90;;
40787;SDS011;26497;52.494;7.546;2023-03-23T11:44:13;1999.90;;;999.90;;
40787;SDS011;26497;52.494;7.546;2023-03-23T11:46:44;1999.90;;;999.90;;
40787;SDS011;26497;52.494;7.546;2023-03-23T11:49:25;1999.90;;;999.90;;
40787;SDS011;26497;52.494;7.546;2023-03-23T11:52:04;1999.90;;;999.90;;
40787;SDS011;26497;52.494;7.546;2023-03-23T11:54:41;1999.90;;;999.90;;
40787;SDS011;26497;52.494;7.546;2023-03-23T11:57:13;1999.90;;;999.90;;
40787;SDS011;26497;52.494;7.546;2023-03-23T11:59:41;1999.90;;;999.90;;
40787;SDS011;26497;52.494;7.546;2023-03-23T12:08:12;1999.90;;;999.90;;
40787;SDS011;26497;52.494;7.546;2023-03-23T12:11:00;1999.90;;;999.90;;
40787;SDS011;26497;52.494;7.546;2023-03-23T12:13:40;1999.90;;;999.90;;
40787;SDS011;26497;52.494;7.546;2023-03-23T12:16:28;1999.90;;;999.90;;
40787;SDS011;26497;52.494;7.546;2023-03-23T12:19:10;1999.90;;;999.90;;
40787;SDS011;26497;52.494;7.546;2023-03-23T12:21:51;1999.90;;;999.90;;
40787;SDS011;26497;52.494;7.546;2023-03-23T12:24:35;1999.90;;;999.90;;
40787;SDS011;26497;52.494;7.546;2023-03-23T12:27:17;1999.90;;;999.90;;
40787;SDS011;26497;52.494;7.546;2023-03-23T12:29:55;1999.90;;;999.90;;
40787;SDS011;26497;52.494;7.546;2023-03-23T12:32:44;1999.90;;;999.90;;
40787;SDS011;26497;52.494;7.546;2023-03-23T12:35:27;1999.90;;;999.90;;
40787;SDS011;26497;52.494;7.546;2023-03-23T12:38:12;1999.90;;;999.90;;
40787;SDS011;26497;52.494;7.546;2023-03-23T12:40:57;1999.90;;;999.90;;
40787;SDS011;26497;52.494;7.546;2023-03-23T12:43:40;1999.90;;;999.90;;
40787;SDS011;26497;52.494;7.546;2023-03-23T12:46:37;1999.90;;;999.90;;
40787;SDS011;26497;52.494;7.546;2023-03-23T12:49:37;1999.90;;;999.90;;
40787;SDS011;26497;52.494;7.546;2023-03-23T12:52:10;1999.90;;;999.90;;
40787;SDS011;26497;52.494;7.546;2023-03-23T12:54:47;1999.90;;;999.90;;
40787;SDS011;26497;52.494;7.546;2023-03-23T12:57:22;1999.90;;;999.90;;
40787;SDS011;26497;52.494;7.546;2023-03-23T12:59:58;1999.90;;;999.90;;
40787;SDS011;26497;52.494;7.546;2023-03-23T13:02:38;1999.90;;;999.90;;
40787;SDS011;26497;52.494;7.546;2023-03-23T13:05:11;1999.90;;;999.90;;
40787;SDS011;26497;52.494;7.546;2023-03-23T13:07:53;1999.90;;;999.90;;
40787;SDS011;26497;52.494;7.546;2023-03-23T13:10:28;1999.90;;;999.90;;
40787;SDS011;26497;52.494;7.546;2023-03-23T13:13:01;1999.90;;;999.90;;
40787;SDS011;26497;52.494;7.546;2023-03-23T13:15:31;1999.90;;;999.90;;
40787;SDS011;26497;52.494;7.546;2023-03-23T13:18:09;1999.90;;;999.90;;
40787;SDS011;26497;52.494;7.546;2023-03-23T13:20:48;1999.90;;;999.90;;
40787;SDS011;26497;52.494;7.546;2023-03-23T13:23:24;1999.90;;;999.90;;
40787;SDS011;26497;52.494;7.546;2023-03-23T13:26:01;1999.90;;;999.90;;
40787;SDS011;26497;52.494;7.546;2023-03-23T13:28:34;1999.90;;;999.90;;
40787;SDS011;26497;52.494;7.546;2023-03-23T13:31:20;1999.90;;;999.90;;
40787;SDS011;26497;52.494;7.546;2023-03-23T13:33:50;1999.90;;;999.90;;
40787;SDS011;26497;52.494;7.546;2023-03-23T13:36:26;1999.90;;;999.90;;
40787;SDS011;26497;52.494;7.546;2023-03-23T13:38:57;1999.90;;;999.90;;
40787;SDS011;26497;52.494;7.546;2023-03-23T13:41:28;1999.90;;;999.90;;
40787;SDS011;26497;52.494;7.546;2023-03-23T13:44:07;1999.90;;;999.90;;
40787;SDS011;26497;52.494;7.546;2023-03-23T13:49:54;1999.90;;;999.90;;
40787;SDS011;26497;52.494;7.546;2023-03-23T13:52:24;1999.90;;;999.90;;
40787;SDS011;26497;52.494;7.546;2023-03-23T13:55:21;1999.90;;;999.90;;
40787;SDS011;26497;52.494;7.546;2023-03-23T13:58:21;1999.90;;;999.90;;
40787;SDS011;26497;52.494;7.546;2023-03-23T14:01:00;1999.90;;;999.90;;
40787;SDS011;26497;52.494;7.546;2023-03-23T14:03:38;1999.90;;;999.90;;
40787;SDS011;26497;52.494;7.546;2023-03-23T14:06:11;1999.90;;;999.90;;
40787;SDS011;26497;52.494;7.546;2023-03-23T14:08:42;1999.90;;;999.90;;
40787;SDS011;26497;52.494;7.546;2023-03-23T14:11:15;1999.90;;;999.90;;
40787;SDS011;26497;52.494;7.546;2023-03-23T14:13:50;1999.90;;;999.90;;
40787;SDS011;26497;52.494;7.546;2023-03-23T14:16:31;1999.90;;;999.90;;
40787;SDS011;26497;52.494;7.546;2023-03-23T14:19:04;1999.90;;;999.90;;
40787;SDS011;26497;52.494;7.546;2023-03-23T14:21:48;1999.90;;;999.90;;
40787;SDS011;26497;52.494;7.546;2023-03-23T14:24:19;1999.90;;;999.90;;
40787;SDS011;26497;52.494;7.546;2023-03-23T14:29:20;1999.90;;;999.90;;
40787;SDS011;26497;52.494;7.546;2023-03-23T14:31:50;1999.90;;;999.90;;
40787;SDS011;26497;52.494;7.546;2023-03-23T14:34:21;1999.90;;;999.90;;
40787;SDS011;26497;52.494;7.546;2023-03-23T14:36:52;1999.90;;;999.90;;
40787;SDS011;26497;52.494;7.546;2023-03-23T14:39:22;1999.90;;;999.90;;